sensor_id;sensor_type;location;lat;lon;timestamp;noise_LAeq;noise_LA_min;noise_LA_max;noise_LA01;noise_LA95
18377;Laerm;9315;52.624;13.544;2023-05-29T00:02:08;54.14;33.88;69.12;;
18377;Laerm;9315;52.624;13.544;2023-05-29T00:04:35;38.47;34.62;43.45;;
18377;Laerm;9315;52.624;13.544;2023-05-29T00:07:04;38.16;34.77;42.58;;
18377;Laerm;9315;52.624;13.544;2023-05-29T00:09:31;37.03;32.97;41.82;;
18377;Laerm;9315;52.624;13.544;2023-05-29T00:11:59;54.71;35.35;72.86;;
18377;Laerm;9315;52.624;13.544;2023-05-29T00:14:26;54.50;33.70;73.83;;
18377;Laerm;9315;52.624;13.544;2023-05-29T00:16:53;57.66;33.69;76.04;;
18377;Laerm;9315;52.624;13.544;2023-05-29T00:19:20;52.28;34.05;69.84;;
18377;Laerm;9315;52.624;13.544;2023-05-29T00:21:48;56.99;33.16;73.17;;
18377;Laerm;9315;52.624;13.544;2023-05-29T00:24:16;37.63;32.25;43.91;;
18377;Laerm;9315;52.624;13.544;2023-05-29T00:26:44;37.30;31.79;42.29;;
18377;Laerm;9315;52.624;13.544;2023-05-29T00:29:11;38.30;32.11;45.97;;
18377;Laerm;9315;52.624;13.544;2023-05-29T00:31:38;37.17;33.01;43.54;;
18377;Laerm;9315;52.624;13.544;2023-05-29T00:34:05;59.26;32.19;77.25;;
18377;Laerm;9315;52.624;13.544;2023-05-29T00:36:34;52.04;32.53;70.80;;
18377;Laerm;9315;52.624;13.544;2023-05-29T00:39:01;56.08;33.54;76.43;;
18377;Laerm;9315;52.624;13.544;2023-05-29T00:41:28;52.33;33.19;69.87;;
18377;Laerm;9315;52.624;13.544;2023-05-29T00:43:55;37.29;32.97;44.41;;
18377;Laerm;9315;52.624;13.544;2023-05-29T00:46:23;36.40;31.89;42.74;;
18377;Laerm;9315;52.624;13.544;2023-05-29T00:48:50;39.06;33.71;47.69;;
18377;Laerm;9315;52.624;13.544;2023-05-29T00:51:18;56.61;34.19;74.15;;
18377;Laerm;9315;52.624;13.544;2023-05-29T00:53:45;56.44;32.48;70.54;;
18377;Laerm;9315;52.624;13.544;2023-05-29T00:56:13;36.24;31.14;42.97;;
18377;Laerm;9315;52.624;13.544;2023-05-29T00:58:41;39.13;32.16;46.73;;
18377;Laerm;9315;52.624;13.544;2023-05-29T01:01:08;56.96;33.06;73.95;;
18377;Laerm;9315;52.624;13.544;2023-05-29T01:03:36;39.97;34.22;46.22;;
18377;Laerm;9315;52.624;13.544;2023-05-29T01:06:04;38.49;31.93;46.45;;
18377;Laerm;9315;52.624;13.544;2023-05-29T01:08:31;56.89;32.89;74.27;;
18377;Laerm;9315;52.624;13.544;2023-05-29T01:11:12;56.59;33.46;71.22;;
18377;Laerm;9315;52.624;13.544;2023-05-29T01:13:46;54.71;33.43;72.48;;
18377;Laerm;9315;52.624;13.544;2023-05-29T01:16:46;60.50;32.97;81.93;;
18377;Laerm;9315;52.624;13.544;2023-05-29T01:28:46;38.91;33.10;57.37;;
18377;Laerm;9315;52.624;13.544;2023-05-29T01:31:23;39.33;32.91;55.42;;
18377;Laerm;9315;52.624;13.544;2023-05-29T01:33:59;57.87;32.94;77.18;;
18377;Laerm;9315;52.624;13.544;2023-05-29T01:36:29;54.69;32.65;71.66;;
18377;Laerm;9315;52.624;13.544;2023-05-29T01:38:58;53.27;32.27;70.11;;
18377;Laerm;9315;52.624;13.544;2023-05-29T01:41:26;47.33;33.38;61.69;;
18377;Laerm;9315;52.624;13.544;2023-05-29T01:43:58;59.28;33.14;77.12;;
18377;Laerm;9315;52.624;13.544;2023-05-29T01:46:25;52.96;34.53;71.02;;
18377;Laerm;9315;52.624;13.544;2023-05-29T01:48:53;55.19;34.54;73.13;;
18377;Laerm;9315;52.624;13.544;2023-05-29T01:51:22;52.97;34.80;68.28;;
18377;Laerm;9315;52.624;13.544;2023-05-29T01:53:49;44.45;34.37;58.49;;
18377;Laerm;9315;52.624;13.544;2023-05-29T01:56:16;44.85;34.64;58.79;;
18377;Laerm;9315;52.624;13.544;2023-05-29T01:58:44;45.54;34.32;58.63;;
18377;Laerm;9315;52.624;13.544;2023-05-29T02:01:12;58.35;36.06;76.51;;
18377;Laerm;9315;52.624;13.544;2023-05-29T02:03:48;57.91;35.84;76.53;;
18377;Laerm;9315;52.624;13.544;2023-05-29T02:06:16;56.88;36.94;72.29;;
18377;Laerm;9315;52.624;13.544;2023-05-29T02:08:44;46.00;35.40;57.99;;
18377;Laerm;9315;52.624;13.544;2023-05-29T02:11:12;60.38;37.07;76.36;;
18377;Laerm;9315;52.624;13.544;2023-05-29T02:13:39;58.37;36.67;75.44;;
18377;Laerm;9315;52.624;13.544;2023-05-29T02:16:06;67.70;37.89;91.11;;
18377;Laerm;9315;52.624;13.544;2023-05-29T02:18:34;55.93;37.13;73.41;;
18377;Laerm;9315;52.624;13.544;2023-05-29T02:21:03;47.65;36.55;60.19;;
18377;Laerm;9315;52.624;13.544;2023-05-29T02:23:30;50.96;36.56;74.65;;
18377;Laerm;9315;52.624;13.544;2023-05-29T02:25:58;51.43;36.87;67.82;;
18377;Laerm;9315;52.624;13.544;2023-05-29T02:28:25;59.92;37.88;75.88;;
18377;Laerm;9315;52.624;13.544;2023-05-29T02:30:52;45.84;37.30;57.06;;
18377;Laerm;9315;52.624;13.544;2023-05-29T02:33:22;56.63;36.01;73.73;;
18377;Laerm;9315;52.624;13.544;2023-05-29T02:35:49;43.40;37.13;56.40;;
18377;Laerm;9315;52.624;13.544;2023-05-29T02:38:16;60.56;37.53;73.22;;
18377;Laerm;9315;52.624;13.544;2023-05-29T02:40:43;46.46;36.64;60.96;;
18377;Laerm;9315;52.624;13.544;2023-05-29T02:43:13;57.96;37.91;75.63;;
18377;Laerm;9315;52.624;13.544;2023-05-29T02:45:41;53.97;37.77;67.79;;
18377;Laerm;9315;52.624;13.544;2023-05-29T02:48:08;53.60;36.41;65.80;;
18377;Laerm;9315;52.624;13.544;2023-05-29T02:50:35;60.23;36.49;77.17;;
18377;Laerm;9315;52.624;13.544;2023-05-29T02:53:03;51.60;35.12;66.41;;
18377;Laerm;9315;52.624;13.544;2023-05-29T02:55:30;62.98;37.52;76.49;;
18377;Laerm;9315;52.624;13.544;2023-05-29T02:57:59;62.54;38.68;74.64;;
18377;Laerm;9315;52.624;13.544;2023-05-29T03:00:28;47.46;34.96;63.70;;
18377;Laerm;9315;52.624;13.544;2023-05-29T03:02:55;56.32;33.85;74.12;;
18377;Laerm;9315;52.624;13.544;2023-05-29T03:05:23;59.38;36.93;74.68;;
18377;Laerm;9315;52.624;13.544;2023-05-29T03:07:50;62.02;37.21;77.05;;
18377;Laerm;9315;52.624;13.544;2023-05-29T03:10:17;66.94;37.71;86.68;;
18377;Laerm;9315;52.624;13.544;2023-05-29T03:12:46;46.01;35.32;62.23;;
18377;Laerm;9315;52.624;13.544;2023-05-29T03:15:13;56.72;37.09;71.51;;
18377;Laerm;9315;52.624;13.544;2023-05-29T03:17:41;62.71;36.20;89.34;;
18377;Laerm;9315;52.624;13.544;2023-05-29T03:20:09;60.62;39.05;73.03;;
18377;Laerm;9315;52.624;13.544;2023-05-29T03:22:37;62.58;36.65;76.72;;
18377;Laerm;9315;52.624;13.544;2023-05-29T03:25:05;58.31;36.84;71.92;;
18377;Laerm;9315;52.624;13.544;2023-05-29T03:27:32;55.89;35.67;74.77;;
18377;Laerm;9315;52.624;13.544;2023-05-29T03:30:00;60.94;35.36;82.64;;
18377;Laerm;9315;52.624;13.544;2023-05-29T03:32:27;55.51;35.48;73.28;;
18377;Laerm;9315;52.624;13.544;2023-05-29T03:34:54;58.07;37.36;72.07;;
18377;Laerm;9315;52.624;13.544;2023-05-29T03:37:22;62.80;39.90;74.07;;
18377;Laerm;9315;52.624;13.544;2023-05-29T03:39:49;64.42;37.30;80.52;;
18377;Laerm;9315;52.624;13.544;2023-05-29T03:42:16;62.06;38.26;76.90;;
18377;Laerm;9315;52.624;13.544;2023-05-29T03:44:43;61.44;38.90;75.02;;
18377;Laerm;9315;52.624;13.544;2023-05-29T03:47:10;59.99;36.31;74.34;;
18377;Laerm;9315;52.624;13.544;2023-05-29T03:49:37;60.29;37.05;78.23;;
18377;Laerm;9315;52.624;13.544;2023-05-29T03:52:05;58.65;37.40;73.02;;
18377;Laerm;9315;52.624;13.544;2023-05-29T03:54:33;59.34;36.13;73.90;;
18377;Laerm;9315;52.624;13.544;2023-05-29T03:57:00;60.82;36.66;75.58;;
18377;Laerm;9315;52.624;13.544;2023-05-29T03:59:28;54.42;35.31;74.27;;
18377;Laerm;9315;52.624;13.544;2023-05-29T04:01:55;59.83;36.74;73.37;;
18377;Laerm;9315;52.624;13.544;2023-05-29T04:04:22;61.01;37.52;73.70;;
18377;Laerm;9315;52.624;13.544;2023-05-29T04:06:50;59.40;34.97;76.97;;
18377;Laerm;9315;52.624;13.544;2023-05-29T04:09:17;62.35;37.34;76.87;;
18377;Laerm;9315;52.624;13.544;2023-05-29T04:11:44;63.83;38.32;78.57;;
18377;Laerm;9315;52.624;13.544;2023-05-29T04:14:13;62.33;36.96;76.73;;
18377;Laerm;9315;52.624;13.544;2023-05-29T04:16:40;57.34;36.91;72.54;;
18377;Laerm;9315;52.624;13.544;2023-05-29T04:19:07;60.65;35.59;78.23;;
18377;Laerm;9315;52.624;13.544;2023-05-29T04:21:35;42.12;35.83;65.15;;
18377;Laerm;9315;52.624;13.544;2023-05-29T04:24:04;42.93;35.08;52.47;;
18377;Laerm;9315;52.624;13.544;2023-05-29T04:26:32;59.14;39.91;76.40;;
18377;Laerm;9315;52.624;13.544;2023-05-29T04:28:59;64.15;39.96;77.62;;
18377;Laerm;9315;52.624;13.544;2023-05-29T04:31:27;59.06;37.23;75.04;;
18377;Laerm;9315;52.624;13.544;2023-05-29T04:33:55;58.23;36.36;75.04;;
18377;Laerm;9315;52.624;13.544;2023-05-29T04:36:26;56.89;35.36;74.55;;
18377;Laerm;9315;52.624;13.544;2023-05-29T04:38:53;61.11;36.22;77.88;;
18377;Laerm;9315;52.624;13.544;2023-05-29T04:41:25;59.89;37.96;75.76;;
18377;Laerm;9315;52.624;13.544;2023-05-29T04:43:57;62.98;35.91;81.25;;
18377;Laerm;9315;52.624;13.544;2023-05-29T04:46:26;43.10;34.95;59.34;;
18377;Laerm;9315;52.624;13.544;2023-05-29T04:48:53;52.07;36.26;70.31;;
18377;Laerm;9315;52.624;13.544;2023-05-29T04:51:21;56.13;36.50;72.15;;
18377;Laerm;9315;52.624;13.544;2023-05-29T04:53:50;59.94;37.78;79.29;;
18377;Laerm;9315;52.624;13.544;2023-05-29T04:56:20;54.48;35.59;72.49;;
18377;Laerm;9315;52.624;13.544;2023-05-29T04:58:49;57.22;36.62;74.72;;
18377;Laerm;9315;52.624;13.544;2023-05-29T05:01:16;60.46;35.17;78.78;;
18377;Laerm;9315;52.624;13.544;2023-05-29T05:03:44;55.24;35.15;72.88;;
18377;Laerm;9315;52.624;13.544;2023-05-29T05:06:12;59.98;36.22;76.39;;
18377;Laerm;9315;52.624;13.544;2023-05-29T05:08:39;61.61;35.28;76.39;;
18377;Laerm;9315;52.624;13.544;2023-05-29T05:11:07;61.58;38.06;74.09;;
18377;Laerm;9315;52.624;13.544;2023-05-29T05:13:34;55.56;35.32;71.12;;
18377;Laerm;9315;52.624;13.544;2023-05-29T05:16:02;62.02;34.92;77.49;;
18377;Laerm;9315;52.624;13.544;2023-05-29T05:18:29;62.85;37.55;78.89;;
18377;Laerm;9315;52.624;13.544;2023-05-29T05:20:56;53.57;33.36;70.53;;
18377;Laerm;9315;52.624;13.544;2023-05-29T05:23:24;55.01;33.80;75.44;;
18377;Laerm;9315;52.624;13.544;2023-05-29T05:25:52;62.51;35.32;78.39;;
18377;Laerm;9315;52.624;13.544;2023-05-29T05:28:19;61.53;34.43;75.68;;
18377;Laerm;9315;52.624;13.544;2023-05-29T05:30:46;64.55;35.05;78.33;;
18377;Laerm;9315;52.624;13.544;2023-05-29T05:33:13;62.70;35.56;75.20;;
18377;Laerm;9315;52.624;13.544;2023-05-29T05:35:40;64.44;35.22;80.44;;
18377;Laerm;9315;52.624;13.544;2023-05-29T05:38:08;60.71;35.07;75.65;;
18377;Laerm;9315;52.624;13.544;2023-05-29T05:40:35;59.33;34.83;74.39;;
18377;Laerm;9315;52.624;13.544;2023-05-29T05:43:02;61.58;35.55;76.92;;
18377;Laerm;9315;52.624;13.544;2023-05-29T05:45:29;63.43;36.02;75.38;;
18377;Laerm;9315;52.624;13.544;2023-05-29T05:47:57;62.65;35.13;76.34;;
18377;Laerm;9315;52.624;13.544;2023-05-29T05:50:24;59.95;33.98;77.73;;
18377;Laerm;9315;52.624;13.544;2023-05-29T05:52:52;60.49;35.11;76.41;;
18377;Laerm;9315;52.624;13.544;2023-05-29T05:55:50;61.29;34.29;76.75;;
18377;Laerm;9315;52.624;13.544;2023-05-29T05:58:18;60.78;34.40;76.16;;
18377;Laerm;9315;52.624;13.544;2023-05-29T06:00:45;58.59;32.73;73.38;;
18377;Laerm;9315;52.624;13.544;2023-05-29T06:03:12;63.49;33.33;76.43;;
18377;Laerm;9315;52.624;13.544;2023-05-29T06:05:43;58.35;35.01;74.23;;
18377;Laerm;9315;52.624;13.544;2023-05-29T06:08:10;60.83;33.86;75.50;;
18377;Laerm;9315;52.624;13.544;2023-05-29T06:10:37;62.26;33.81;76.43;;
18377;Laerm;9315;52.624;13.544;2023-05-29T06:13:04;56.97;32.17;71.93;;
18377;Laerm;9315;52.624;13.544;2023-05-29T06:15:32;59.86;34.02;74.24;;
18377;Laerm;9315;52.624;13.544;2023-05-29T06:18:09;64.21;35.24;76.33;;
18377;Laerm;9315;52.624;13.544;2023-05-29T06:20:37;63.13;34.43;79.23;;
18377;Laerm;9315;52.624;13.544;2023-05-29T06:23:10;60.52;34.41;76.35;;
18377;Laerm;9315;52.624;13.544;2023-05-29T06:25:37;62.79;34.66;76.07;;
18377;Laerm;9315;52.624;13.544;2023-05-29T06:28:17;64.05;34.82;77.04;;
18377;Laerm;9315;52.624;13.544;2023-05-29T06:30:44;61.00;33.57;72.73;;
18377;Laerm;9315;52.624;13.544;2023-05-29T06:33:12;60.70;33.02;75.42;;
18377;Laerm;9315;52.624;13.544;2023-05-29T06:35:40;67.15;36.24;85.46;;
18377;Laerm;9315;52.624;13.544;2023-05-29T06:38:10;58.68;33.63;73.61;;
18377;Laerm;9315;52.624;13.544;2023-05-29T06:40:40;66.11;35.57;82.02;;
18377;Laerm;9315;52.624;13.544;2023-05-29T06:43:07;62.98;35.46;78.69;;
18377;Laerm;9315;52.624;13.544;2023-05-29T06:45:39;63.63;36.50;75.79;;
18377;Laerm;9315;52.624;13.544;2023-05-29T06:48:07;63.59;34.31;76.27;;
18377;Laerm;9315;52.624;13.544;2023-05-29T06:50:35;62.13;37.08;77.76;;
18377;Laerm;9315;52.624;13.544;2023-05-29T06:53:08;61.77;34.30;74.83;;
18377;Laerm;9315;52.624;13.544;2023-05-29T06:55:39;65.07;36.88;79.52;;
18377;Laerm;9315;52.624;13.544;2023-05-29T06:58:10;64.57;36.69;75.69;;
18377;Laerm;9315;52.624;13.544;2023-05-29T07:00:37;63.00;35.61;76.75;;
18377;Laerm;9315;52.624;13.544;2023-05-29T07:03:05;67.01;38.57;82.28;;
18377;Laerm;9315;52.624;13.544;2023-05-29T07:05:32;63.77;36.23;74.91;;
18377;Laerm;9315;52.624;13.544;2023-05-29T07:08:00;66.29;38.18;78.39;;
18377;Laerm;9315;52.624;13.544;2023-05-29T07:10:32;63.23;36.24;75.70;;
18377;Laerm;9315;52.624;13.544;2023-05-29T07:12:59;64.29;36.37;77.04;;
18377;Laerm;9315;52.624;13.544;2023-05-29T07:15:26;60.67;35.04;74.14;;
18377;Laerm;9315;52.624;13.544;2023-05-29T07:17:59;65.21;35.20;80.59;;
18377;Laerm;9315;52.624;13.544;2023-05-29T07:20:26;68.84;40.17;86.70;;
18377;Laerm;9315;52.624;13.544;2023-05-29T07:22:54;65.26;35.21;77.42;;
18377;Laerm;9315;52.624;13.544;2023-05-29T07:25:24;63.29;34.44;73.33;;
18377;Laerm;9315;52.624;13.544;2023-05-29T07:27:52;67.47;40.42;83.88;;
18377;Laerm;9315;52.624;13.544;2023-05-29T07:30:19;66.56;37.30;78.82;;
18377;Laerm;9315;52.624;13.544;2023-05-29T07:32:46;63.66;35.86;74.54;;
18377;Laerm;9315;52.624;13.544;2023-05-29T07:35:14;64.09;38.92;74.96;;
18377;Laerm;9315;52.624;13.544;2023-05-29T07:37:44;66.09;35.49;78.28;;
18377;Laerm;9315;52.624;13.544;2023-05-29T07:40:11;68.12;45.39;77.52;;
18377;Laerm;9315;52.624;13.544;2023-05-29T07:42:38;67.03;41.86;77.32;;
18377;Laerm;9315;52.624;13.544;2023-05-29T07:45:07;65.84;40.95;77.03;;
18377;Laerm;9315;52.624;13.544;2023-05-29T07:47:34;65.53;39.83;76.90;;
18377;Laerm;9315;52.624;13.544;2023-05-29T07:50:04;66.13;37.97;76.09;;
18377;Laerm;9315;52.624;13.544;2023-05-29T07:52:33;67.83;38.56;77.43;;
18377;Laerm;9315;52.624;13.544;2023-05-29T07:55:00;66.81;37.86;80.16;;
18377;Laerm;9315;52.624;13.544;2023-05-29T07:57:28;67.14;37.82;79.86;;
18377;Laerm;9315;52.624;13.544;2023-05-29T07:59:56;66.38;35.73;79.59;;
18377;Laerm;9315;52.624;13.544;2023-05-29T08:02:23;66.70;38.12;82.51;;
18377;Laerm;9315;52.624;13.544;2023-05-29T08:04:51;65.57;34.67;75.65;;
18377;Laerm;9315;52.624;13.544;2023-05-29T08:07:18;66.02;37.80;77.39;;
18377;Laerm;9315;52.624;13.544;2023-05-29T08:09:45;69.86;49.93;79.01;;
18377;Laerm;9315;52.624;13.544;2023-05-29T08:12:13;64.93;38.91;76.13;;
18377;Laerm;9315;52.624;13.544;2023-05-29T08:14:42;65.02;37.35;75.34;;
18377;Laerm;9315;52.624;13.544;2023-05-29T08:17:09;70.30;37.40;85.59;;
18377;Laerm;9315;52.624;13.544;2023-05-29T08:19:44;65.66;39.71;74.49;;
18377;Laerm;9315;52.624;13.544;2023-05-29T08:22:14;66.23;39.91;76.65;;
18377;Laerm;9315;52.624;13.544;2023-05-29T08:24:42;69.71;37.40;86.62;;
18377;Laerm;9315;52.624;13.544;2023-05-29T08:27:11;67.28;45.50;85.80;;
18377;Laerm;9315;52.624;13.544;2023-05-29T08:29:38;66.07;41.34;79.35;;
18377;Laerm;9315;52.624;13.544;2023-05-29T08:32:05;66.77;37.72;75.59;;
18377;Laerm;9315;52.624;13.544;2023-05-29T08:34:36;67.38;39.25;79.21;;
18377;Laerm;9315;52.624;13.544;2023-05-29T08:37:06;67.13;44.65;76.22;;
18377;Laerm;9315;52.624;13.544;2023-05-29T08:39:34;67.81;43.01;77.73;;
18377;Laerm;9315;52.624;13.544;2023-05-29T08:42:13;65.91;39.74;76.83;;
18377;Laerm;9315;52.624;13.544;2023-05-29T08:44:47;67.65;43.21;78.79;;
18377;Laerm;9315;52.624;13.544;2023-05-29T08:47:18;67.47;41.47;77.40;;
18377;Laerm;9315;52.624;13.544;2023-05-29T08:49:53;66.35;43.45;76.69;;
18377;Laerm;9315;52.624;13.544;2023-05-29T08:52:23;68.30;40.67;83.80;;
18377;Laerm;9315;52.624;13.544;2023-05-29T08:54:55;66.65;45.82;75.93;;
18377;Laerm;9315;52.624;13.544;2023-05-29T08:57:23;67.82;41.36;76.31;;
18377;Laerm;9315;52.624;13.544;2023-05-29T08:59:51;67.29;41.40;75.76;;
18377;Laerm;9315;52.624;13.544;2023-05-29T09:02:22;67.56;46.74;78.07;;
18377;Laerm;9315;52.624;13.544;2023-05-29T09:04:50;68.99;43.16;77.78;;
18377;Laerm;9315;52.624;13.544;2023-05-29T09:07:21;68.58;40.72;78.83;;
18377;Laerm;9315;52.624;13.544;2023-05-29T09:09:49;67.44;44.17;76.23;;
18377;Laerm;9315;52.624;13.544;2023-05-29T09:12:17;66.90;45.91;77.87;;
18377;Laerm;9315;52.624;13.544;2023-05-29T09:14:45;66.74;42.73;79.03;;
18377;Laerm;9315;52.624;13.544;2023-05-29T09:17:19;67.18;40.72;79.48;;
18377;Laerm;9315;52.624;13.544;2023-05-29T09:19:49;66.70;38.40;78.81;;
18377;Laerm;9315;52.624;13.544;2023-05-29T09:22:17;66.41;39.63;75.42;;
18377;Laerm;9315;52.624;13.544;2023-05-29T09:24:48;66.46;44.19;75.25;;
18377;Laerm;9315;52.624;13.544;2023-05-29T09:27:18;66.34;39.31;76.11;;
18377;Laerm;9315;52.624;13.544;2023-05-29T09:29:46;67.38;42.12;81.94;;
18377;Laerm;9315;52.624;13.544;2023-05-29T09:32:18;66.47;41.98;77.71;;
18377;Laerm;9315;52.624;13.544;2023-05-29T09:34:46;66.46;40.67;77.65;;
18377;Laerm;9315;52.624;13.544;2023-05-29T09:37:13;67.00;40.21;75.76;;
18377;Laerm;9315;52.624;13.544;2023-05-29T09:42:13;67.65;41.65;80.57;;
18377;Laerm;9315;52.624;13.544;2023-05-29T09:44:42;67.71;40.85;76.98;;
18377;Laerm;9315;52.624;13.544;2023-05-29T09:47:13;68.02;46.68;82.68;;
18377;Laerm;9315;52.624;13.544;2023-05-29T09:49:43;66.69;41.22;76.63;;
18377;Laerm;9315;52.624;13.544;2023-05-29T09:52:15;66.54;39.48;79.35;;
18377;Laerm;9315;52.624;13.544;2023-05-29T09:54:47;65.15;39.24;76.24;;
18377;Laerm;9315;52.624;13.544;2023-05-29T09:57:17;65.96;42.05;75.44;;
18377;Laerm;9315;52.624;13.544;2023-05-29T09:59:46;67.80;46.13;76.42;;
18377;Laerm;9315;52.624;13.544;2023-05-29T10:02:19;65.13;37.53;75.44;;
18377;Laerm;9315;52.624;13.544;2023-05-29T10:04:48;66.59;42.20;78.62;;
18377;Laerm;9315;52.624;13.544;2023-05-29T10:07:29;69.05;41.57;86.12;;
18377;Laerm;9315;52.624;13.544;2023-05-29T10:10:05;66.57;40.80;80.62;;
18377;Laerm;9315;52.624;13.544;2023-05-29T10:12:38;65.80;38.77;76.56;;
18377;Laerm;9315;52.624;13.544;2023-05-29T10:15:13;68.65;42.42;83.62;;
18377;Laerm;9315;52.624;13.544;2023-05-29T10:18:22;67.46;39.43;80.98;;
18377;Laerm;9315;52.624;13.544;2023-05-29T10:20:53;68.46;43.87;78.31;;
18377;Laerm;9315;52.624;13.544;2023-05-29T10:23:26;66.60;39.43;75.21;;
18377;Laerm;9315;52.624;13.544;2023-05-29T10:26:15;65.87;38.85;76.06;;
18377;Laerm;9315;52.624;13.544;2023-05-29T10:29:23;66.56;38.82;76.26;;
18377;Laerm;9315;52.624;13.544;2023-05-29T10:35:14;67.17;41.30;77.91;;
18377;Laerm;9315;52.624;13.544;2023-05-29T10:38:27;68.00;43.58;78.76;;
18377;Laerm;9315;52.624;13.544;2023-05-29T10:40:54;66.57;43.99;74.51;;
18377;Laerm;9315;52.624;13.544;2023-05-29T10:43:35;68.19;47.54;79.74;;
18377;Laerm;9315;52.624;13.544;2023-05-29T10:46:04;66.78;40.10;78.35;;
18377;Laerm;9315;52.624;13.544;2023-05-29T10:48:42;66.47;40.12;79.92;;
18377;Laerm;9315;52.624;13.544;2023-05-29T10:51:27;68.12;39.04;77.80;;
18377;Laerm;9315;52.624;13.544;2023-05-29T10:53:54;80.74;50.74;105.80;;
18377;Laerm;9315;52.624;13.544;2023-05-29T10:56:30;67.23;41.29;78.66;;
18377;Laerm;9315;52.624;13.544;2023-05-29T10:59:00;67.79;44.91;79.16;;
18377;Laerm;9315;52.624;13.544;2023-05-29T11:01:31;66.99;44.29;77.03;;
18377;Laerm;9315;52.624;13.544;2023-05-29T11:06:47;67.59;44.88;80.30;;
18377;Laerm;9315;52.624;13.544;2023-05-29T11:09:37;65.47;40.31;79.47;;
18377;Laerm;9315;52.624;13.544;2023-05-29T11:12:15;66.21;42.77;74.22;;
18377;Laerm;9315;52.624;13.544;2023-05-29T11:15:09;65.90;37.62;74.60;;
18377;Laerm;9315;52.624;13.544;2023-05-29T11:17:44;68.74;47.02;76.26;;
18377;Laerm;9315;52.624;13.544;2023-05-29T11:20:36;67.88;42.94;79.15;;
18377;Laerm;9315;52.624;13.544;2023-05-29T11:23:07;68.03;45.85;79.56;;
18377;Laerm;9315;52.624;13.544;2023-05-29T11:25:37;67.82;44.76;76.41;;
18377;Laerm;9315;52.624;13.544;2023-05-29T11:28:05;66.60;40.84;78.04;;
18377;Laerm;9315;52.624;13.544;2023-05-29T11:30:47;68.36;42.80;86.22;;
18377;Laerm;9315;52.624;13.544;2023-05-29T11:33:26;68.45;42.64;78.86;;
18377;Laerm;9315;52.624;13.544;2023-05-29T11:35:58;65.93;38.09;77.22;;
18377;Laerm;9315;52.624;13.544;2023-05-29T11:38:27;68.05;41.36;81.48;;
18377;Laerm;9315;52.624;13.544;2023-05-29T11:40:56;67.57;39.05;79.46;;
18377;Laerm;9315;52.624;13.544;2023-05-29T11:43:25;68.25;43.49;79.91;;
18377;Laerm;9315;52.624;13.544;2023-05-29T11:45:53;67.46;40.98;83.60;;
18377;Laerm;9315;52.624;13.544;2023-05-29T11:48:20;67.05;41.40;74.50;;
18377;Laerm;9315;52.624;13.544;2023-05-29T11:50:48;66.91;38.62;74.79;;
18377;Laerm;9315;52.624;13.544;2023-05-29T11:53:16;67.81;42.59;79.54;;
18377;Laerm;9315;52.624;13.544;2023-05-29T11:55:43;67.37;41.28;75.06;;
18377;Laerm;9315;52.624;13.544;2023-05-29T11:58:11;67.44;46.29;77.68;;
18377;Laerm;9315;52.624;13.544;2023-05-29T12:00:39;66.79;39.60;74.60;;
18377;Laerm;9315;52.624;13.544;2023-05-29T12:03:07;67.61;41.73;78.73;;
18377;Laerm;9315;52.624;13.544;2023-05-29T12:05:48;67.76;41.07;75.48;;
18377;Laerm;9315;52.624;13.544;2023-05-29T12:08:16;69.98;41.17;86.87;;
18377;Laerm;9315;52.624;13.544;2023-05-29T12:10:52;69.81;44.19;88.70;;
18377;Laerm;9315;52.624;13.544;2023-05-29T12:13:22;70.19;37.97;83.96;;
18377;Laerm;9315;52.624;13.544;2023-05-29T12:15:58;69.06;50.15;77.68;;
18377;Laerm;9315;52.624;13.544;2023-05-29T12:18:28;68.03;44.25;75.30;;
18377;Laerm;9315;52.624;13.544;2023-05-29T12:21:03;67.38;38.45;79.86;;
18377;Laerm;9315;52.624;13.544;2023-05-29T12:23:34;67.15;38.95;75.01;;
18377;Laerm;9315;52.624;13.544;2023-05-29T12:26:01;68.30;41.21;80.44;;
18377;Laerm;9315;52.624;13.544;2023-05-29T12:28:29;67.53;41.72;77.42;;
18377;Laerm;9315;52.624;13.544;2023-05-29T12:31:00;66.93;43.60;76.32;;
18377;Laerm;9315;52.624;13.544;2023-05-29T12:33:34;66.87;40.86;77.35;;
18377;Laerm;9315;52.624;13.544;2023-05-29T12:36:12;69.55;39.96;81.65;;
18377;Laerm;9315;52.624;13.544;2023-05-29T12:38:51;66.67;39.53;77.08;;
18377;Laerm;9315;52.624;13.544;2023-05-29T12:41:34;69.12;40.26;84.80;;
18377;Laerm;9315;52.624;13.544;2023-05-29T12:44:09;68.97;46.41;77.58;;
18377;Laerm;9315;52.624;13.544;2023-05-29T12:46:42;65.43;44.17;74.78;;
18377;Laerm;9315;52.624;13.544;2023-05-29T12:49:17;65.54;39.43;75.43;;
18377;Laerm;9315;52.624;13.544;2023-05-29T12:51:49;67.21;42.05;78.58;;
18377;Laerm;9315;52.624;13.544;2023-05-29T12:54:17;66.83;41.24;77.02;;
18377;Laerm;9315;52.624;13.544;2023-05-29T12:56:44;66.94;40.84;76.47;;
18377;Laerm;9315;52.624;13.544;2023-05-29T12:59:13;67.81;39.91;78.52;;
18377;Laerm;9315;52.624;13.544;2023-05-29T13:01:41;67.30;38.40;76.73;;
18377;Laerm;9315;52.624;13.544;2023-05-29T13:04:15;66.69;40.77;76.30;;
18377;Laerm;9315;52.624;13.544;2023-05-29T13:06:43;62.74;39.08;76.06;;
18377;Laerm;9315;52.624;13.544;2023-05-29T13:09:10;68.20;41.22;80.18;;
18377;Laerm;9315;52.624;13.544;2023-05-29T13:11:38;68.62;45.75;78.03;;
18377;Laerm;9315;52.624;13.544;2023-05-29T13:14:08;67.92;43.11;76.07;;
18377;Laerm;9315;52.624;13.544;2023-05-29T13:16:35;68.53;48.08;77.35;;
18377;Laerm;9315;52.624;13.544;2023-05-29T13:19:03;64.41;41.75;75.38;;
18377;Laerm;9315;52.624;13.544;2023-05-29T13:21:30;68.55;38.59;77.68;;
18377;Laerm;9315;52.624;13.544;2023-05-29T13:23:57;68.69;42.97;77.72;;
18377;Laerm;9315;52.624;13.544;2023-05-29T13:26:25;66.79;39.84;75.94;;
18377;Laerm;9315;52.624;13.544;2023-05-29T13:28:54;66.89;40.59;77.60;;
18377;Laerm;9315;52.624;13.544;2023-05-29T13:31:22;67.14;41.28;77.60;;
18377;Laerm;9315;52.624;13.544;2023-05-29T13:33:49;69.64;41.71;79.91;;
18377;Laerm;9315;52.624;13.544;2023-05-29T13:36:19;65.09;39.60;80.17;;
18377;Laerm;9315;52.624;13.544;2023-05-29T13:38:47;67.15;45.18;76.63;;
18377;Laerm;9315;52.624;13.544;2023-05-29T13:41:14;67.68;42.25;80.53;;
18377;Laerm;9315;52.624;13.544;2023-05-29T13:43:41;67.72;40.58;77.87;;
18377;Laerm;9315;52.624;13.544;2023-05-29T13:46:12;65.34;40.41;75.75;;
18377;Laerm;9315;52.624;13.544;2023-05-29T13:48:40;65.95;42.58;76.35;;
18377;Laerm;9315;52.624;13.544;2023-05-29T13:51:07;67.81;38.16;83.03;;
18377;Laerm;9315;52.624;13.544;2023-05-29T13:53:34;67.71;38.94;79.42;;
18377;Laerm;9315;52.624;13.544;2023-05-29T13:56:02;68.15;40.50;82.74;;
18377;Laerm;9315;52.624;13.544;2023-05-29T13:58:29;65.07;35.03;82.31;;
18377;Laerm;9315;52.624;13.544;2023-05-29T14:00:57;66.36;40.85;75.67;;
18377;Laerm;9315;52.624;13.544;2023-05-29T14:03:24;68.50;43.94;82.69;;
18377;Laerm;9315;52.624;13.544;2023-05-29T14:05:56;67.57;40.59;77.49;;
18377;Laerm;9315;52.624;13.544;2023-05-29T14:08:24;66.79;40.08;77.73;;
18377;Laerm;9315;52.624;13.544;2023-05-29T14:10:51;67.12;40.88;78.00;;
18377;Laerm;9315;52.624;13.544;2023-05-29T14:13:18;66.47;38.15;77.65;;
18377;Laerm;9315;52.624;13.544;2023-05-29T14:15:45;67.29;39.73;75.90;;
18377;Laerm;9315;52.624;13.544;2023-05-29T14:18:13;65.12;38.16;76.11;;